LOT3966 EPLB-EPWA
Flight info
| Callsign | LOT3966 |
|---|---|
| Flight time | 0h 20m |
| Altitude | 20000 |
| Route | VADOL L621 LIMVI |
| Aircraft | E170/M-SDE3GILORVW/S |
Departure
| Time | 2026-04-23 16:52 |
|---|---|
| Airport | Lublin Airport (EPLB) |
Arrival
| Time | 2026-04-23 17:12 |
|---|---|
| Airport | Warsaw Chopin Airport (EPWA) |
| Time | Latitude | Longitude | Altitude | Speed | Heading |
|---|---|---|---|---|---|
| 2026-04-23 16:34 | 51.23644 | 22.71487 | 651 ft | 0 kts | 168° |
| 2026-04-23 16:44 | 51.23650 | 22.71485 | 651 ft | 2 kts | 167° |
| 2026-04-23 16:44 | 51.23667 | 22.71480 | 651 ft | 2 kts | 170° |
| 2026-04-23 16:45 | 51.23683 | 22.71476 | 651 ft | 2 kts | 173° |
| 2026-04-23 16:45 | 51.23699 | 22.71474 | 652 ft | 2 kts | 180° |
| 2026-04-23 16:45 | 51.23716 | 22.71478 | 652 ft | 2 kts | 200° |
| 2026-04-23 16:45 | 51.23727 | 22.71495 | 651 ft | 2 kts | 245° |
| 2026-04-23 16:46 | 51.23729 | 22.71503 | 654 ft | 0 kts | 252° |
| 2026-04-23 16:47 | 51.23727 | 22.71495 | 651 ft | 3 kts | 261° |
| 2026-04-23 16:47 | 51.23770 | 22.71444 | 651 ft | 14 kts | 347° |
| 2026-04-23 16:48 | 51.23905 | 22.71392 | 650 ft | 24 kts | 347° |
| 2026-04-23 16:48 | 51.24032 | 22.71447 | 642 ft | 18 kts | 77° |
| 2026-04-23 16:48 | 51.24066 | 22.71678 | 638 ft | 25 kts | 79° |
| 2026-04-23 16:48 | 51.24111 | 22.71973 | 639 ft | 27 kts | 83° |
| 2026-04-23 16:49 | 51.24138 | 22.72178 | 637 ft | 29 kts | 78° |
| 2026-04-23 16:49 | 51.24206 | 22.72657 | 641 ft | 38 kts | 73° |
| 2026-04-23 16:49 | 51.24264 | 22.73000 | 638 ft | 15 kts | 57° |
| 2026-04-23 16:49 | 51.24271 | 22.73081 | 636 ft | 3 kts | 182° |
| 2026-04-23 16:50 | 51.24264 | 22.73069 | 635 ft | 0 kts | 253° |
| 2026-04-23 16:51 | 51.24263 | 22.73068 | 634 ft | 1 kts | 254° |
| 2026-04-23 16:51 | 51.24223 | 22.72776 | 638 ft | 68 kts | 257° |
| 2026-04-23 16:51 | 51.24044 | 22.71557 | 644 ft | 154 kts | 257° |
| 2026-04-23 16:52 | 51.23787 | 22.69776 | 1375 ft | 175 kts | 262° |
| 2026-04-23 16:52 | 51.23541 | 22.67872 | 2479 ft | 178 kts | 264° |
| 2026-04-23 16:52 | 51.23284 | 22.65884 | 3424 ft | 189 kts | 263° |
| 2026-04-23 16:52 | 51.23100 | 22.63748 | 4222 ft | 197 kts | 275° |
| 2026-04-23 16:53 | 51.23287 | 22.61556 | 5074 ft | 201 kts | 284° |
| 2026-04-23 16:53 | 51.23534 | 22.59308 | 5812 ft | 210 kts | 283° |
| 2026-04-23 16:53 | 51.23788 | 22.56965 | 6519 ft | 218 kts | 283° |
| 2026-04-23 16:53 | 51.24059 | 22.54542 | 7171 ft | 225 kts | 284° |
| 2026-04-23 16:54 | 51.24346 | 22.52005 | 7773 ft | 245 kts | 284° |
| 2026-04-23 16:54 | 51.24654 | 22.49287 | 8379 ft | 261 kts | 283° |
| 2026-04-23 16:54 | 51.24981 | 22.46359 | 9107 ft | 273 kts | 284° |
| 2026-04-23 16:54 | 51.25328 | 22.43339 | 9961 ft | 279 kts | 284° |
| 2026-04-23 16:55 | 51.25686 | 22.40194 | 10531 ft | 296 kts | 284° |
| 2026-04-23 16:55 | 51.26074 | 22.36843 | 10959 ft | 317 kts | 284° |
| 2026-04-23 16:55 | 51.26490 | 22.33279 | 11459 ft | 334 kts | 284° |
| 2026-04-23 16:55 | 51.26914 | 22.29603 | 12382 ft | 333 kts | 284° |
| 2026-04-23 16:56 | 51.27324 | 22.25984 | 13641 ft | 331 kts | 284° |
| 2026-04-23 16:56 | 51.27825 | 22.22391 | 14076 ft | 327 kts | 292° |
| 2026-04-23 16:56 | 51.28464 | 22.20240 | 13348 ft | 326 kts | 308° |
| 2026-04-23 16:56 | 51.30706 | 22.16821 | 12107 ft | 336 kts | 323° |
| 2026-04-23 16:57 | 51.32399 | 22.14413 | 13632 ft | 321 kts | 319° |
| 2026-04-23 16:57 | 51.33985 | 22.11962 | 14708 ft | 322 kts | 320° |
| 2026-04-23 16:57 | 51.35625 | 22.09435 | 15506 ft | 331 kts | 321° |
| 2026-04-23 16:57 | 51.37339 | 22.06915 | 16365 ft | 337 kts | 322° |
| 2026-04-23 16:58 | 51.39098 | 22.04364 | 17238 ft | 344 kts | 322° |
| 2026-04-23 16:58 | 51.40883 | 22.01746 | 18094 ft | 350 kts | 322° |
| 2026-04-23 16:58 | 51.42689 | 21.99086 | 18858 ft | 356 kts | 322° |
| 2026-04-23 16:58 | 51.44520 | 21.96380 | 19598 ft | 361 kts | 323° |
| 2026-04-23 16:59 | 51.46385 | 21.93617 | 20012 ft | 369 kts | 322° |
| 2026-04-23 16:59 | 51.48252 | 21.90843 | 19913 ft | 373 kts | 322° |
| 2026-04-23 16:59 | 51.50159 | 21.88006 | 19904 ft | 373 kts | 322° |
| 2026-04-23 16:59 | 51.52044 | 21.85189 | 19931 ft | 368 kts | 322° |
| 2026-04-23 17:00 | 51.53911 | 21.82401 | 19932 ft | 366 kts | 322° |
| 2026-04-23 17:00 | 51.55781 | 21.79604 | 19935 ft | 365 kts | 322° |
| 2026-04-23 17:00 | 51.57639 | 21.76823 | 19948 ft | 364 kts | 322° |
| 2026-04-23 17:00 | 51.59471 | 21.74077 | 19950 ft | 365 kts | 322° |
| 2026-04-23 17:01 | 51.61327 | 21.71292 | 19943 ft | 365 kts | 322° |
| 2026-04-23 17:01 | 51.63181 | 21.68506 | 19961 ft | 364 kts | 322° |
| 2026-04-23 17:01 | 51.65038 | 21.65714 | 19961 ft | 364 kts | 322° |
| 2026-04-23 17:01 | 51.66901 | 21.62911 | 19970 ft | 368 kts | 322° |
| 2026-04-23 17:02 | 51.68138 | 21.61045 | 19973 ft | 367 kts | 322° |
| 2026-04-23 17:02 | 51.70628 | 21.57284 | 19962 ft | 365 kts | 322° |
| 2026-04-23 17:02 | 51.72457 | 21.54518 | 19943 ft | 363 kts | 322° |
| 2026-04-23 17:02 | 51.74309 | 21.51717 | 19935 ft | 362 kts | 322° |
| 2026-04-23 17:03 | 51.76140 | 21.48941 | 19159 ft | 356 kts | 322° |
| 2026-04-23 17:03 | 51.77913 | 21.46237 | 18180 ft | 345 kts | 322° |
| 2026-04-23 17:03 | 51.79061 | 21.44486 | 17410 ft | 337 kts | 322° |
| 2026-04-23 17:03 | 51.80733 | 21.41935 | 16282 ft | 325 kts | 322° |
| 2026-04-23 17:04 | 51.82356 | 21.39460 | 15142 ft | 317 kts | 321° |
| 2026-04-23 17:04 | 51.83944 | 21.37036 | 14029 ft | 311 kts | 321° |
| 2026-04-23 17:04 | 51.85504 | 21.34652 | 12786 ft | 306 kts | 320° |
| 2026-04-23 17:04 | 51.87041 | 21.32295 | 11510 ft | 302 kts | 320° |
| 2026-04-23 17:05 | 51.88561 | 21.29966 | 10227 ft | 299 kts | 319° |
| 2026-04-23 17:05 | 51.90067 | 21.27657 | 8840 ft | 296 kts | 318° |
| 2026-04-23 17:05 | 51.91548 | 21.25370 | 7420 ft | 292 kts | 318° |
| 2026-04-23 17:05 | 51.93017 | 21.23117 | 5954 ft | 289 kts | 317° |
| 2026-04-23 17:06 | 51.94460 | 21.20890 | 4859 ft | 277 kts | 317° |
| 2026-04-23 17:06 | 51.95769 | 21.18862 | 4456 ft | 252 kts | 317° |
| 2026-04-23 17:06 | 51.97013 | 21.16938 | 4076 ft | 242 kts | 317° |
| 2026-04-23 17:06 | 51.98240 | 21.15039 | 3739 ft | 247 kts | 317° |
| 2026-04-23 17:07 | 51.99479 | 21.13133 | 3394 ft | 241 kts | 317° |
| 2026-04-23 17:07 | 52.00644 | 21.11341 | 3107 ft | 220 kts | 317° |
| 2026-04-23 17:07 | 52.01743 | 21.09786 | 2928 ft | 197 kts | 326° |
| 2026-04-23 17:07 | 52.02845 | 21.08749 | 3044 ft | 173 kts | 332° |
| 2026-04-23 17:08 | 52.03871 | 21.07840 | 2882 ft | 159 kts | 330° |
| 2026-04-23 17:08 | 52.04780 | 21.07019 | 2726 ft | 143 kts | 330° |
| 2026-04-23 17:08 | 52.05630 | 21.06282 | 2555 ft | 137 kts | 331° |
| 2026-04-23 17:08 | 52.06469 | 21.05554 | 2363 ft | 134 kts | 332° |
| 2026-04-23 17:09 | 52.07259 | 21.04868 | 2168 ft | 123 kts | 330° |
| 2026-04-23 17:09 | 52.07977 | 21.04227 | 1998 ft | 115 kts | 330° |
| 2026-04-23 17:09 | 52.08691 | 21.03592 | 1847 ft | 121 kts | 332° |
| 2026-04-23 17:09 | 52.09449 | 21.02962 | 1678 ft | 123 kts | 332° |
| 2026-04-23 17:10 | 52.10197 | 21.02297 | 1487 ft | 119 kts | 330° |
| 2026-04-23 17:10 | 52.10929 | 21.01654 | 1376 ft | 122 kts | 331° |
| 2026-04-23 17:10 | 52.11683 | 21.01002 | 1180 ft | 121 kts | 331° |
| 2026-04-23 17:10 | 52.12423 | 21.00360 | 1012 ft | 121 kts | 331° |
| 2026-04-23 17:11 | 52.13151 | 20.99720 | 865 ft | 120 kts | 330° |
| 2026-04-23 17:11 | 52.13879 | 20.99073 | 711 ft | 120 kts | 330° |
| 2026-04-23 17:11 | 52.14609 | 20.98428 | 575 ft | 118 kts | 331° |
| 2026-04-23 17:11 | 52.15327 | 20.97800 | 424 ft | 116 kts | 332° |
| 2026-04-23 17:12 | 52.16016 | 20.97199 | 336 ft | 103 kts | 332° |
| 2026-04-23 17:12 | 52.16521 | 20.96759 | 335 ft | 57 kts | 331° |
| 2026-04-23 17:12 | 52.16823 | 20.96530 | 335 ft | 40 kts | 348° |
| 2026-04-23 17:12 | 52.17018 | 20.96515 | 335 ft | 17 kts | 1° |
| 2026-04-23 17:13 | 52.17080 | 20.96545 | 336 ft | 10 kts | 47° |
| 2026-04-23 17:13 | 52.17117 | 20.96648 | 334 ft | 12 kts | 60° |
| 2026-04-23 17:13 | 52.17159 | 20.96784 | 333 ft | 14 kts | 76° |
| 2026-04-23 17:13 | 52.17123 | 20.96874 | 336 ft | 1 kts | 124° |
| 2026-04-23 17:14 | 52.17120 | 20.96896 | 336 ft | 4 kts | 89° |
| 2026-04-23 17:14 | 52.17130 | 20.96955 | 334 ft | 7 kts | 61° |
| 2026-04-23 17:14 | 52.17149 | 20.97012 | 336 ft | 0 kts | 62° |
| 2026-04-23 17:14 | 52.17150 | 20.97014 | 336 ft | 0 kts | 62° |